sensor_id;sensor_type;location;lat;lon;timestamp;P1;durP1;ratioP1;P2;durP2;ratioP2
23561;SDS011;11959;49.418;8.728;2024-01-30T00:01:40;11.45;;;7.68;;
23561;SDS011;11959;49.418;8.728;2024-01-30T00:04:06;11.15;;;7.65;;
23561;SDS011;11959;49.418;8.728;2024-01-30T00:06:32;11.50;;;7.78;;
23561;SDS011;11959;49.418;8.728;2024-01-30T00:08:57;10.45;;;7.57;;
23561;SDS011;11959;49.418;8.728;2024-01-30T00:11:23;11.57;;;8.07;;
23561;SDS011;11959;49.418;8.728;2024-01-30T00:13:50;13.90;;;8.43;;
23561;SDS011;11959;49.418;8.728;2024-01-30T00:16:20;11.00;;;7.90;;
23561;SDS011;11959;49.418;8.728;2024-01-30T00:18:47;12.52;;;8.07;;
23561;SDS011;11959;49.418;8.728;2024-01-30T00:21:13;10.75;;;7.32;;
23561;SDS011;11959;49.418;8.728;2024-01-30T00:23:39;11.65;;;7.55;;
23561;SDS011;11959;49.418;8.728;2024-01-30T00:26:04;9.98;;;6.68;;
23561;SDS011;11959;49.418;8.728;2024-01-30T00:28:31;10.73;;;7.45;;
23561;SDS011;11959;49.418;8.728;2024-01-30T00:30:56;10.13;;;7.38;;
23561;SDS011;11959;49.418;8.728;2024-01-30T00:33:22;9.80;;;7.70;;
23561;SDS011;11959;49.418;8.728;2024-01-30T00:35:47;10.45;;;7.22;;
23561;SDS011;11959;49.418;8.728;2024-01-30T00:38:13;13.77;;;8.65;;
23561;SDS011;11959;49.418;8.728;2024-01-30T00:40:39;11.38;;;7.93;;
23561;SDS011;11959;49.418;8.728;2024-01-30T00:43:04;12.65;;;8.10;;
23561;SDS011;11959;49.418;8.728;2024-01-30T00:45:30;14.27;;;7.93;;
23561;SDS011;11959;49.418;8.728;2024-01-30T00:47:56;10.90;;;7.47;;
23561;SDS011;11959;49.418;8.728;2024-01-30T00:50:22;13.75;;;8.23;;
23561;SDS011;11959;49.418;8.728;2024-01-30T00:52:47;11.52;;;7.78;;
23561;SDS011;11959;49.418;8.728;2024-01-30T00:55:13;12.77;;;8.07;;
23561;SDS011;11959;49.418;8.728;2024-01-30T00:57:39;11.65;;;7.82;;
23561;SDS011;11959;49.418;8.728;2024-01-30T01:00:05;12.35;;;7.95;;
23561;SDS011;11959;49.418;8.728;2024-01-30T01:02:34;12.65;;;8.40;;
23561;SDS011;11959;49.418;8.728;2024-01-30T01:05:00;11.80;;;8.10;;
23561;SDS011;11959;49.418;8.728;2024-01-30T01:07:25;13.25;;;7.85;;
23561;SDS011;11959;49.418;8.728;2024-01-30T01:09:51;12.05;;;7.85;;
23561;SDS011;11959;49.418;8.728;2024-01-30T01:12:16;11.60;;;8.55;;
23561;SDS011;11959;49.418;8.728;2024-01-30T01:14:42;11.65;;;7.53;;
23561;SDS011;11959;49.418;8.728;2024-01-30T01:17:08;11.57;;;7.63;;
23561;SDS011;11959;49.418;8.728;2024-01-30T01:19:33;13.85;;;8.07;;
23561;SDS011;11959;49.418;8.728;2024-01-30T01:21:59;10.68;;;7.78;;
23561;SDS011;11959;49.418;8.728;2024-01-30T01:24:24;11.00;;;7.68;;
23561;SDS011;11959;49.418;8.728;2024-01-30T01:26:50;11.88;;;7.50;;
23561;SDS011;11959;49.418;8.728;2024-01-30T01:29:16;12.23;;;7.93;;
23561;SDS011;11959;49.418;8.728;2024-01-30T01:31:41;11.43;;;7.63;;
23561;SDS011;11959;49.418;8.728;2024-01-30T01:34:11;13.18;;;7.93;;
23561;SDS011;11959;49.418;8.728;2024-01-30T01:36:39;11.43;;;7.60;;
23561;SDS011;11959;49.418;8.728;2024-01-30T01:39:05;10.88;;;7.20;;
23561;SDS011;11959;49.418;8.728;2024-01-30T01:41:33;10.23;;;7.60;;
23561;SDS011;11959;49.418;8.728;2024-01-30T01:43:59;12.18;;;7.97;;
23561;SDS011;11959;49.418;8.728;2024-01-30T01:46:29;12.07;;;7.90;;
23561;SDS011;11959;49.418;8.728;2024-01-30T01:48:57;9.65;;;7.15;;
23561;SDS011;11959;49.418;8.728;2024-01-30T01:51:22;12.05;;;7.57;;
23561;SDS011;11959;49.418;8.728;2024-01-30T01:53:51;11.32;;;8.18;;
23561;SDS011;11959;49.418;8.728;2024-01-30T01:56:18;12.13;;;7.53;;
23561;SDS011;11959;49.418;8.728;2024-01-30T01:58:44;10.60;;;7.35;;
23561;SDS011;11959;49.418;8.728;2024-01-30T02:01:13;11.48;;;7.47;;
23561;SDS011;11959;49.418;8.728;2024-01-30T02:03:42;9.88;;;7.13;;
23561;SDS011;11959;49.418;8.728;2024-01-30T02:06:08;13.27;;;7.45;;
23561;SDS011;11959;49.418;8.728;2024-01-30T02:08:34;10.63;;;7.20;;
23561;SDS011;11959;49.418;8.728;2024-01-30T02:11:01;12.15;;;7.60;;
23561;SDS011;11959;49.418;8.728;2024-01-30T02:13:26;10.05;;;7.35;;
23561;SDS011;11959;49.418;8.728;2024-01-30T02:15:52;12.02;;;7.03;;
23561;SDS011;11959;49.418;8.728;2024-01-30T02:18:19;10.98;;;7.93;;
23561;SDS011;11959;49.418;8.728;2024-01-30T02:20:46;11.82;;;7.47;;
23561;SDS011;11959;49.418;8.728;2024-01-30T02:23:12;9.95;;;7.07;;
23561;SDS011;11959;49.418;8.728;2024-01-30T02:25:41;9.45;;;6.55;;
23561;SDS011;11959;49.418;8.728;2024-01-30T02:28:11;9.95;;;7.57;;
23561;SDS011;11959;49.418;8.728;2024-01-30T02:30:40;12.23;;;7.70;;
23561;SDS011;11959;49.418;8.728;2024-01-30T02:33:07;9.50;;;7.10;;
23561;SDS011;11959;49.418;8.728;2024-01-30T02:35:33;10.82;;;6.78;;
23561;SDS011;11959;49.418;8.728;2024-01-30T02:37:59;10.70;;;6.72;;
23561;SDS011;11959;49.418;8.728;2024-01-30T02:40:25;12.00;;;7.40;;
23561;SDS011;11959;49.418;8.728;2024-01-30T02:42:50;11.15;;;7.22;;
23561;SDS011;11959;49.418;8.728;2024-01-30T02:45:16;10.20;;;6.88;;
23561;SDS011;11959;49.418;8.728;2024-01-30T02:47:42;10.70;;;7.38;;
23561;SDS011;11959;49.418;8.728;2024-01-30T02:50:08;9.30;;;7.30;;
23561;SDS011;11959;49.418;8.728;2024-01-30T02:52:34;9.57;;;7.40;;
23561;SDS011;11959;49.418;8.728;2024-01-30T02:55:00;10.93;;;7.88;;
23561;SDS011;11959;49.418;8.728;2024-01-30T02:57:26;11.75;;;7.25;;
23561;SDS011;11959;49.418;8.728;2024-01-30T02:59:51;10.57;;;7.40;;
23561;SDS011;11959;49.418;8.728;2024-01-30T03:02:17;11.15;;;6.78;;
23561;SDS011;11959;49.418;8.728;2024-01-30T03:04:43;12.05;;;7.07;;
23561;SDS011;11959;49.418;8.728;2024-01-30T03:07:09;13.30;;;7.30;;
23561;SDS011;11959;49.418;8.728;2024-01-30T03:09:35;9.05;;;6.68;;
23561;SDS011;11959;49.418;8.728;2024-01-30T03:12:01;8.20;;;6.32;;
23561;SDS011;11959;49.418;8.728;2024-01-30T03:14:29;11.27;;;7.30;;
23561;SDS011;11959;49.418;8.728;2024-01-30T03:16:55;9.80;;;6.82;;
23561;SDS011;11959;49.418;8.728;2024-01-30T03:19:21;9.48;;;7.15;;
23561;SDS011;11959;49.418;8.728;2024-01-30T03:21:47;12.70;;;7.50;;
23561;SDS011;11959;49.418;8.728;2024-01-30T03:24:12;12.85;;;7.38;;
23561;SDS011;11959;49.418;8.728;2024-01-30T03:26:38;11.07;;;7.57;;
23561;SDS011;11959;49.418;8.728;2024-01-30T03:29:03;10.98;;;6.75;;
23561;SDS011;11959;49.418;8.728;2024-01-30T03:31:29;9.35;;;7.43;;
23561;SDS011;11959;49.418;8.728;2024-01-30T03:33:55;9.55;;;7.13;;
23561;SDS011;11959;49.418;8.728;2024-01-30T03:36:20;11.07;;;7.18;;
23561;SDS011;11959;49.418;8.728;2024-01-30T03:38:46;11.70;;;7.57;;
23561;SDS011;11959;49.418;8.728;2024-01-30T03:41:12;9.82;;;7.18;;
23561;SDS011;11959;49.418;8.728;2024-01-30T03:43:37;11.60;;;7.13;;
23561;SDS011;11959;49.418;8.728;2024-01-30T03:46:03;11.30;;;7.53;;
23561;SDS011;11959;49.418;8.728;2024-01-30T03:48:29;9.25;;;7.20;;
23561;SDS011;11959;49.418;8.728;2024-01-30T03:50:55;10.85;;;7.13;;
23561;SDS011;11959;49.418;8.728;2024-01-30T03:53:21;11.82;;;7.05;;
23561;SDS011;11959;49.418;8.728;2024-01-30T03:55:47;10.48;;;7.25;;
23561;SDS011;11959;49.418;8.728;2024-01-30T03:58:12;10.82;;;7.20;;
23561;SDS011;11959;49.418;8.728;2024-01-30T04:00:39;10.88;;;7.57;;
23561;SDS011;11959;49.418;8.728;2024-01-30T04:03:06;12.57;;;7.68;;
23561;SDS011;11959;49.418;8.728;2024-01-30T04:05:31;10.18;;;6.95;;
23561;SDS011;11959;49.418;8.728;2024-01-30T04:07:57;11.07;;;7.30;;
23561;SDS011;11959;49.418;8.728;2024-01-30T04:10:23;9.98;;;7.15;;
23561;SDS011;11959;49.418;8.728;2024-01-30T04:12:49;10.30;;;7.35;;
23561;SDS011;11959;49.418;8.728;2024-01-30T04:15:16;12.02;;;7.43;;
23561;SDS011;11959;49.418;8.728;2024-01-30T04:17:42;9.93;;;7.45;;
23561;SDS011;11959;49.418;8.728;2024-01-30T04:20:12;11.82;;;7.20;;
23561;SDS011;11959;49.418;8.728;2024-01-30T04:22:39;10.02;;;7.15;;
23561;SDS011;11959;49.418;8.728;2024-01-30T04:25:05;11.85;;;7.22;;
23561;SDS011;11959;49.418;8.728;2024-01-30T04:27:30;10.05;;;6.85;;
23561;SDS011;11959;49.418;8.728;2024-01-30T04:29:56;10.75;;;7.28;;
23561;SDS011;11959;49.418;8.728;2024-01-30T04:32:22;9.93;;;6.90;;
23561;SDS011;11959;49.418;8.728;2024-01-30T04:34:47;10.93;;;6.70;;
23561;SDS011;11959;49.418;8.728;2024-01-30T04:37:13;8.75;;;6.70;;
23561;SDS011;11959;49.418;8.728;2024-01-30T04:39:38;10.05;;;6.85;;
23561;SDS011;11959;49.418;8.728;2024-01-30T04:42:04;10.55;;;7.13;;
23561;SDS011;11959;49.418;8.728;2024-01-30T04:44:30;10.35;;;7.10;;
23561;SDS011;11959;49.418;8.728;2024-01-30T04:46:56;10.35;;;6.97;;
23561;SDS011;11959;49.418;8.728;2024-01-30T04:49:24;10.27;;;7.90;;
23561;SDS011;11959;49.418;8.728;2024-01-30T04:51:49;10.45;;;7.05;;
23561;SDS011;11959;49.418;8.728;2024-01-30T04:54:15;11.38;;;7.35;;
23561;SDS011;11959;49.418;8.728;2024-01-30T04:56:40;9.88;;;6.68;;
23561;SDS011;11959;49.418;8.728;2024-01-30T04:59:06;11.52;;;7.13;;
23561;SDS011;11959;49.418;8.728;2024-01-30T05:01:33;8.73;;;6.82;;
23561;SDS011;11959;49.418;8.728;2024-01-30T05:03:59;11.05;;;7.25;;
23561;SDS011;11959;49.418;8.728;2024-01-30T05:06:26;11.18;;;7.35;;
23561;SDS011;11959;49.418;8.728;2024-01-30T05:08:52;9.48;;;7.35;;
23561;SDS011;11959;49.418;8.728;2024-01-30T05:11:18;10.90;;;7.35;;
23561;SDS011;11959;49.418;8.728;2024-01-30T05:13:44;9.55;;;7.22;;
23561;SDS011;11959;49.418;8.728;2024-01-30T05:16:10;10.27;;;7.43;;
23561;SDS011;11959;49.418;8.728;2024-01-30T05:18:35;10.23;;;7.82;;
23561;SDS011;11959;49.418;8.728;2024-01-30T05:21:02;9.05;;;6.75;;
23561;SDS011;11959;49.418;8.728;2024-01-30T05:23:27;10.10;;;7.28;;
23561;SDS011;11959;49.418;8.728;2024-01-30T05:25:53;10.68;;;6.90;;
23561;SDS011;11959;49.418;8.728;2024-01-30T05:28:19;11.52;;;7.90;;
23561;SDS011;11959;49.418;8.728;2024-01-30T05:30:44;11.55;;;7.22;;
23561;SDS011;11959;49.418;8.728;2024-01-30T05:33:10;10.07;;;6.78;;
23561;SDS011;11959;49.418;8.728;2024-01-30T05:35:37;11.07;;;6.78;;
23561;SDS011;11959;49.418;8.728;2024-01-30T05:38:03;10.23;;;7.70;;
23561;SDS011;11959;49.418;8.728;2024-01-30T05:40:29;9.40;;;7.40;;
23561;SDS011;11959;49.418;8.728;2024-01-30T05:42:55;11.50;;;7.18;;
23561;SDS011;11959;49.418;8.728;2024-01-30T05:45:21;11.25;;;7.43;;
23561;SDS011;11959;49.418;8.728;2024-01-30T05:47:48;11.10;;;7.05;;
23561;SDS011;11959;49.418;8.728;2024-01-30T05:50:14;10.68;;;7.63;;
23561;SDS011;11959;49.418;8.728;2024-01-30T05:52:39;9.48;;;7.20;;
23561;SDS011;11959;49.418;8.728;2024-01-30T05:55:05;12.25;;;8.00;;
23561;SDS011;11959;49.418;8.728;2024-01-30T05:57:31;10.65;;;7.50;;
23561;SDS011;11959;49.418;8.728;2024-01-30T05:59:57;11.68;;;7.28;;
23561;SDS011;11959;49.418;8.728;2024-01-30T06:02:23;9.70;;;7.13;;
23561;SDS011;11959;49.418;8.728;2024-01-30T06:04:48;9.35;;;6.88;;
23561;SDS011;11959;49.418;8.728;2024-01-30T06:07:14;10.30;;;7.28;;
23561;SDS011;11959;49.418;8.728;2024-01-30T06:09:40;10.25;;;7.57;;
23561;SDS011;11959;49.418;8.728;2024-01-30T06:12:06;11.32;;;7.22;;
23561;SDS011;11959;49.418;8.728;2024-01-30T06:14:32;13.30;;;7.78;;
23561;SDS011;11959;49.418;8.728;2024-01-30T06:16:58;10.50;;;7.70;;
23561;SDS011;11959;49.418;8.728;2024-01-30T06:19:24;10.07;;;7.18;;
23561;SDS011;11959;49.418;8.728;2024-01-30T06:21:50;11.95;;;7.82;;
23561;SDS011;11959;49.418;8.728;2024-01-30T06:24:16;18.00;;;8.82;;
23561;SDS011;11959;49.418;8.728;2024-01-30T06:26:42;15.15;;;8.88;;
23561;SDS011;11959;49.418;8.728;2024-01-30T06:29:07;13.75;;;8.73;;
23561;SDS011;11959;49.418;8.728;2024-01-30T06:31:39;10.63;;;7.85;;
23561;SDS011;11959;49.418;8.728;2024-01-30T06:34:05;10.23;;;7.70;;
23561;SDS011;11959;49.418;8.728;2024-01-30T06:36:31;12.60;;;8.65;;
23561;SDS011;11959;49.418;8.728;2024-01-30T06:38:56;18.23;;;8.68;;
23561;SDS011;11959;49.418;8.728;2024-01-30T06:41:22;25.20;;;9.27;;
23561;SDS011;11959;49.418;8.728;2024-01-30T06:43:47;12.85;;;8.32;;
23561;SDS011;11959;49.418;8.728;2024-01-30T06:46:13;15.48;;;8.85;;
23561;SDS011;11959;49.418;8.728;2024-01-30T06:48:39;15.15;;;9.15;;
23561;SDS011;11959;49.418;8.728;2024-01-30T06:51:05;11.68;;;8.13;;
23561;SDS011;11959;49.418;8.728;2024-01-30T06:53:31;12.18;;;8.88;;
23561;SDS011;11959;49.418;8.728;2024-01-30T06:55:57;13.30;;;9.23;;
23561;SDS011;11959;49.418;8.728;2024-01-30T06:58:22;11.65;;;8.52;;
23561;SDS011;11959;49.418;8.728;2024-01-30T07:00:48;12.02;;;7.70;;
23561;SDS011;11959;49.418;8.728;2024-01-30T07:03:14;14.82;;;9.23;;
23561;SDS011;11959;49.418;8.728;2024-01-30T07:05:39;12.77;;;8.77;;
23561;SDS011;11959;49.418;8.728;2024-01-30T07:08:06;14.20;;;9.50;;
23561;SDS011;11959;49.418;8.728;2024-01-30T07:10:32;13.10;;;8.35;;
23561;SDS011;11959;49.418;8.728;2024-01-30T07:12:58;13.18;;;9.38;;
23561;SDS011;11959;49.418;8.728;2024-01-30T07:15:25;15.95;;;9.52;;
23561;SDS011;11959;49.418;8.728;2024-01-30T07:17:50;12.75;;;8.60;;
23561;SDS011;11959;49.418;8.728;2024-01-30T07:20:16;13.35;;;9.05;;
23561;SDS011;11959;49.418;8.728;2024-01-30T07:22:45;11.27;;;8.77;;
23561;SDS011;11959;49.418;8.728;2024-01-30T07:25:10;15.70;;;9.25;;
23561;SDS011;11959;49.418;8.728;2024-01-30T07:27:36;13.70;;;9.30;;
23561;SDS011;11959;49.418;8.728;2024-01-30T07:30:02;12.95;;;9.13;;
23561;SDS011;11959;49.418;8.728;2024-01-30T07:32:28;12.52;;;8.68;;
23561;SDS011;11959;49.418;8.728;2024-01-30T07:34:53;12.63;;;8.82;;
23561;SDS011;11959;49.418;8.728;2024-01-30T07:37:19;13.07;;;8.75;;
23561;SDS011;11959;49.418;8.728;2024-01-30T07:39:44;12.43;;;9.10;;
23561;SDS011;11959;49.418;8.728;2024-01-30T07:42:10;11.80;;;8.77;;
23561;SDS011;11959;49.418;8.728;2024-01-30T07:44:36;14.65;;;9.02;;
23561;SDS011;11959;49.418;8.728;2024-01-30T07:47:01;14.48;;;8.73;;
23561;SDS011;11959;49.418;8.728;2024-01-30T07:49:28;16.15;;;9.73;;
23561;SDS011;11959;49.418;8.728;2024-01-30T07:51:53;15.30;;;10.05;;
23561;SDS011;11959;49.418;8.728;2024-01-30T07:54:19;13.02;;;9.63;;
23561;SDS011;11959;49.418;8.728;2024-01-30T07:56:44;12.35;;;9.02;;
23561;SDS011;11959;49.418;8.728;2024-01-30T07:59:10;14.48;;;9.52;;
23561;SDS011;11959;49.418;8.728;2024-01-30T08:01:36;11.95;;;8.85;;
23561;SDS011;11959;49.418;8.728;2024-01-30T08:04:02;14.95;;;9.32;;
23561;SDS011;11959;49.418;8.728;2024-01-30T08:06:28;14.50;;;9.57;;
23561;SDS011;11959;49.418;8.728;2024-01-30T08:08:54;11.95;;;8.60;;
23561;SDS011;11959;49.418;8.728;2024-01-30T08:11:20;13.05;;;8.85;;
23561;SDS011;11959;49.418;8.728;2024-01-30T08:13:50;14.45;;;9.68;;
23561;SDS011;11959;49.418;8.728;2024-01-30T08:16:16;13.05;;;9.63;;
23561;SDS011;11959;49.418;8.728;2024-01-30T08:18:42;14.20;;;9.73;;
23561;SDS011;11959;49.418;8.728;2024-01-30T08:21:08;11.77;;;8.63;;
23561;SDS011;11959;49.418;8.728;2024-01-30T08:23:34;14.07;;;9.90;;
23561;SDS011;11959;49.418;8.728;2024-01-30T08:25:59;14.35;;;9.45;;
23561;SDS011;11959;49.418;8.728;2024-01-30T08:28:25;13.45;;;9.32;;
23561;SDS011;11959;49.418;8.728;2024-01-30T08:30:51;14.43;;;9.15;;
23561;SDS011;11959;49.418;8.728;2024-01-30T08:33:18;12.80;;;8.73;;
23561;SDS011;11959;49.418;8.728;2024-01-30T08:35:44;12.43;;;9.05;;
23561;SDS011;11959;49.418;8.728;2024-01-30T08:38:09;12.57;;;9.52;;
23561;SDS011;11959;49.418;8.728;2024-01-30T08:40:37;15.13;;;10.10;;
23561;SDS011;11959;49.418;8.728;2024-01-30T08:43:03;17.38;;;12.02;;
23561;SDS011;11959;49.418;8.728;2024-01-30T08:45:29;15.43;;;10.52;;
23561;SDS011;11959;49.418;8.728;2024-01-30T08:47:55;16.00;;;10.32;;
23561;SDS011;11959;49.418;8.728;2024-01-30T08:50:21;11.60;;;9.07;;
23561;SDS011;11959;49.418;8.728;2024-01-30T08:52:47;12.80;;;9.15;;
23561;SDS011;11959;49.418;8.728;2024-01-30T08:55:12;12.60;;;9.05;;
23561;SDS011;11959;49.418;8.728;2024-01-30T08:57:38;13.35;;;9.52;;
23561;SDS011;11959;49.418;8.728;2024-01-30T09:00:04;12.60;;;9.27;;
23561;SDS011;11959;49.418;8.728;2024-01-30T09:02:31;12.20;;;9.40;;
23561;SDS011;11959;49.418;8.728;2024-01-30T09:04:57;15.10;;;10.60;;
23561;SDS011;11959;49.418;8.728;2024-01-30T09:07:23;13.07;;;9.30;;
23561;SDS011;11959;49.418;8.728;2024-01-30T09:09:49;14.25;;;9.27;;
23561;SDS011;11959;49.418;8.728;2024-01-30T09:12:15;12.48;;;9.65;;
23561;SDS011;11959;49.418;8.728;2024-01-30T09:14:40;14.13;;;9.82;;
23561;SDS011;11959;49.418;8.728;2024-01-30T09:17:06;13.35;;;9.68;;
23561;SDS011;11959;49.418;8.728;2024-01-30T09:19:32;12.98;;;10.15;;
23561;SDS011;11959;49.418;8.728;2024-01-30T09:21:58;14.10;;;9.23;;
23561;SDS011;11959;49.418;8.728;2024-01-30T09:24:23;15.65;;;10.38;;
23561;SDS011;11959;49.418;8.728;2024-01-30T09:26:50;13.43;;;9.43;;
23561;SDS011;11959;49.418;8.728;2024-01-30T09:29:15;11.07;;;8.52;;
23561;SDS011;11959;49.418;8.728;2024-01-30T09:31:47;12.50;;;9.25;;
23561;SDS011;11959;49.418;8.728;2024-01-30T09:34:13;12.45;;;8.98;;
23561;SDS011;11959;49.418;8.728;2024-01-30T09:36:39;12.10;;;8.82;;
23561;SDS011;11959;49.418;8.728;2024-01-30T09:39:04;15.00;;;9.60;;
23561;SDS011;11959;49.418;8.728;2024-01-30T09:41:37;10.90;;;8.60;;
23561;SDS011;11959;49.418;8.728;2024-01-30T09:44:17;11.85;;;9.05;;
23561;SDS011;11959;49.418;8.728;2024-01-30T09:46:46;11.55;;;8.27;;
23561;SDS011;11959;49.418;8.728;2024-01-30T09:49:13;11.85;;;8.65;;
23561;SDS011;11959;49.418;8.728;2024-01-30T09:51:39;12.98;;;8.88;;
23561;SDS011;11959;49.418;8.728;2024-01-30T09:54:06;12.63;;;9.50;;
23561;SDS011;11959;49.418;8.728;2024-01-30T09:56:34;12.73;;;8.82;;
23561;SDS011;11959;49.418;8.728;2024-01-30T09:59:00;12.90;;;8.68;;
23561;SDS011;11959;49.418;8.728;2024-01-30T10:01:26;12.10;;;9.52;;
23561;SDS011;11959;49.418;8.728;2024-01-30T10:03:52;11.02;;;8.70;;
23561;SDS011;11959;49.418;8.728;2024-01-30T10:06:19;14.20;;;9.60;;
23561;SDS011;11959;49.418;8.728;2024-01-30T10:08:46;13.60;;;9.20;;
23561;SDS011;11959;49.418;8.728;2024-01-30T10:11:11;12.27;;;8.73;;
23561;SDS011;11959;49.418;8.728;2024-01-30T10:13:38;12.68;;;9.00;;
23561;SDS011;11959;49.418;8.728;2024-01-30T10:16:04;13.38;;;8.88;;
23561;SDS011;11959;49.418;8.728;2024-01-30T10:18:31;12.70;;;9.15;;
23561;SDS011;11959;49.418;8.728;2024-01-30T10:20:58;12.20;;;9.27;;
23561;SDS011;11959;49.418;8.728;2024-01-30T10:23:24;11.85;;;8.55;;
23561;SDS011;11959;49.418;8.728;2024-01-30T10:25:53;13.15;;;8.82;;
23561;SDS011;11959;49.418;8.728;2024-01-30T10:28:19;13.27;;;8.35;;
23561;SDS011;11959;49.418;8.728;2024-01-30T10:30:45;11.00;;;8.82;;
23561;SDS011;11959;49.418;8.728;2024-01-30T10:33:10;13.95;;;8.65;;
23561;SDS011;11959;49.418;8.728;2024-01-30T10:35:36;13.85;;;9.98;;
23561;SDS011;11959;49.418;8.728;2024-01-30T10:38:02;11.23;;;8.45;;
23561;SDS011;11959;49.418;8.728;2024-01-30T10:40:29;13.40;;;9.60;;
23561;SDS011;11959;49.418;8.728;2024-01-30T10:42:56;11.93;;;8.70;;
23561;SDS011;11959;49.418;8.728;2024-01-30T10:45:22;13.32;;;9.30;;
23561;SDS011;11959;49.418;8.728;2024-01-30T10:47:50;12.13;;;9.23;;
23561;SDS011;11959;49.418;8.728;2024-01-30T10:50:19;11.00;;;8.75;;
23561;SDS011;11959;49.418;8.728;2024-01-30T10:52:45;13.15;;;9.23;;
23561;SDS011;11959;49.418;8.728;2024-01-30T10:55:12;12.63;;;9.65;;
23561;SDS011;11959;49.418;8.728;2024-01-30T10:57:38;11.25;;;8.88;;
23561;SDS011;11959;49.418;8.728;2024-01-30T11:00:10;13.40;;;9.30;;
23561;SDS011;11959;49.418;8.728;2024-01-30T11:02:41;13.05;;;9.48;;
23561;SDS011;11959;49.418;8.728;2024-01-30T11:05:08;12.93;;;9.18;;
23561;SDS011;11959;49.418;8.728;2024-01-30T11:07:34;12.27;;;9.20;;
23561;SDS011;11959;49.418;8.728;2024-01-30T11:12:28;13.20;;;9.35;;
23561;SDS011;11959;49.418;8.728;2024-01-30T11:15:05;11.50;;;9.10;;
23561;SDS011;11959;49.418;8.728;2024-01-30T11:17:43;13.50;;;8.95;;
23561;SDS011;11959;49.418;8.728;2024-01-30T11:20:18;12.90;;;9.65;;
23561;SDS011;11959;49.418;8.728;2024-01-30T11:22:49;12.68;;;9.45;;
23561;SDS011;11959;49.418;8.728;2024-01-30T11:25:17;15.40;;;9.50;;
23561;SDS011;11959;49.418;8.728;2024-01-30T11:27:44;12.45;;;9.25;;
23561;SDS011;11959;49.418;8.728;2024-01-30T11:30:10;12.10;;;8.32;;
23561;SDS011;11959;49.418;8.728;2024-01-30T11:32:45;14.63;;;9.45;;
23561;SDS011;11959;49.418;8.728;2024-01-30T11:35:11;12.50;;;9.25;;
23561;SDS011;11959;49.418;8.728;2024-01-30T11:37:37;11.15;;;8.52;;
23561;SDS011;11959;49.418;8.728;2024-01-30T11:40:06;11.43;;;9.10;;
23561;SDS011;11959;49.418;8.728;2024-01-30T11:42:33;15.32;;;10.32;;
23561;SDS011;11959;49.418;8.728;2024-01-30T11:45:01;12.43;;;9.15;;
23561;SDS011;11959;49.418;8.728;2024-01-30T11:47:28;13.50;;;9.43;;
23561;SDS011;11959;49.418;8.728;2024-01-30T11:49:54;13.02;;;9.15;;
23561;SDS011;11959;49.418;8.728;2024-01-30T11:52:19;13.02;;;9.27;;
23561;SDS011;11959;49.418;8.728;2024-01-30T11:54:45;12.25;;;9.15;;
23561;SDS011;11959;49.418;8.728;2024-01-30T11:57:11;13.77;;;9.27;;
23561;SDS011;11959;49.418;8.728;2024-01-30T11:59:37;14.95;;;9.77;;
23561;SDS011;11959;49.418;8.728;2024-01-30T12:02:02;13.77;;;9.27;;
23561;SDS011;11959;49.418;8.728;2024-01-30T12:04:29;13.00;;;9.98;;
23561;SDS011;11959;49.418;8.728;2024-01-30T12:06:55;12.85;;;9.57;;
23561;SDS011;11959;49.418;8.728;2024-01-30T12:09:21;12.90;;;9.25;;
23561;SDS011;11959;49.418;8.728;2024-01-30T12:11:47;14.15;;;10.57;;
23561;SDS011;11959;49.418;8.728;2024-01-30T12:14:13;12.82;;;9.77;;
23561;SDS011;11959;49.418;8.728;2024-01-30T12:16:40;12.57;;;9.95;;
23561;SDS011;11959;49.418;8.728;2024-01-30T12:19:06;12.35;;;9.95;;
23561;SDS011;11959;49.418;8.728;2024-01-30T12:21:33;14.65;;;9.60;;
23561;SDS011;11959;49.418;8.728;2024-01-30T12:24:00;13.65;;;9.15;;
23561;SDS011;11959;49.418;8.728;2024-01-30T12:26:26;13.70;;;9.55;;
23561;SDS011;11959;49.418;8.728;2024-01-30T12:28:55;12.80;;;9.30;;
23561;SDS011;11959;49.418;8.728;2024-01-30T12:31:26;11.50;;;8.80;;
23561;SDS011;11959;49.418;8.728;2024-01-30T12:33:59;15.13;;;10.23;;
23561;SDS011;11959;49.418;8.728;2024-01-30T12:36:24;14.05;;;10.32;;
23561;SDS011;11959;49.418;8.728;2024-01-30T12:38:50;12.20;;;8.80;;
23561;SDS011;11959;49.418;8.728;2024-01-30T12:41:16;10.68;;;9.20;;
23561;SDS011;11959;49.418;8.728;2024-01-30T12:43:42;11.02;;;9.40;;
23561;SDS011;11959;49.418;8.728;2024-01-30T12:46:08;12.10;;;9.73;;
23561;SDS011;11959;49.418;8.728;2024-01-30T12:48:34;12.52;;;8.95;;
23561;SDS011;11959;49.418;8.728;2024-01-30T12:50:59;11.77;;;8.88;;
23561;SDS011;11959;49.418;8.728;2024-01-30T12:53:25;12.13;;;9.18;;
23561;SDS011;11959;49.418;8.728;2024-01-30T12:55:51;12.45;;;9.05;;
23561;SDS011;11959;49.418;8.728;2024-01-30T12:58:18;11.63;;;9.00;;
23561;SDS011;11959;49.418;8.728;2024-01-30T13:00:43;13.05;;;9.05;;
23561;SDS011;11959;49.418;8.728;2024-01-30T13:03:09;13.82;;;9.10;;
23561;SDS011;11959;49.418;8.728;2024-01-30T13:05:36;11.60;;;8.65;;
23561;SDS011;11959;49.418;8.728;2024-01-30T13:08:02;12.27;;;8.38;;
23561;SDS011;11959;49.418;8.728;2024-01-30T13:10:27;12.80;;;8.85;;
23561;SDS011;11959;49.418;8.728;2024-01-30T13:12:53;12.25;;;8.40;;
23561;SDS011;11959;49.418;8.728;2024-01-30T13:15:19;12.02;;;9.07;;
23561;SDS011;11959;49.418;8.728;2024-01-30T13:17:44;10.52;;;7.97;;
23561;SDS011;11959;49.418;8.728;2024-01-30T13:20:13;11.95;;;8.30;;
23561;SDS011;11959;49.418;8.728;2024-01-30T13:22:44;11.48;;;8.43;;
23561;SDS011;11959;49.418;8.728;2024-01-30T13:25:10;10.98;;;8.07;;
23561;SDS011;11959;49.418;8.728;2024-01-30T13:27:36;12.60;;;8.20;;
23561;SDS011;11959;49.418;8.728;2024-01-30T13:30:02;11.93;;;8.65;;
23561;SDS011;11959;49.418;8.728;2024-01-30T13:32:29;10.85;;;8.48;;
23561;SDS011;11959;49.418;8.728;2024-01-30T13:34:54;11.90;;;8.98;;
23561;SDS011;11959;49.418;8.728;2024-01-30T13:37:20;13.13;;;8.65;;
23561;SDS011;11959;49.418;8.728;2024-01-30T13:39:46;12.52;;;8.18;;
23561;SDS011;11959;49.418;8.728;2024-01-30T13:42:12;10.27;;;7.65;;
23561;SDS011;11959;49.418;8.728;2024-01-30T13:44:38;12.25;;;8.70;;
23561;SDS011;11959;49.418;8.728;2024-01-30T13:47:04;10.80;;;8.25;;
23561;SDS011;11959;49.418;8.728;2024-01-30T13:49:29;12.52;;;8.77;;
23561;SDS011;11959;49.418;8.728;2024-01-30T13:51:55;11.98;;;8.18;;
23561;SDS011;11959;49.418;8.728;2024-01-30T13:54:21;11.48;;;8.43;;
23561;SDS011;11959;49.418;8.728;2024-01-30T13:56:46;15.18;;;10.52;;
23561;SDS011;11959;49.418;8.728;2024-01-30T13:59:12;11.55;;;10.05;;
23561;SDS011;11959;49.418;8.728;2024-01-30T14:01:38;12.82;;;9.40;;
23561;SDS011;11959;49.418;8.728;2024-01-30T14:04:03;12.52;;;9.52;;
23561;SDS011;11959;49.418;8.728;2024-01-30T14:06:29;12.65;;;9.32;;
23561;SDS011;11959;49.418;8.728;2024-01-30T14:08:55;14.02;;;9.15;;
23561;SDS011;11959;49.418;8.728;2024-01-30T14:11:20;13.35;;;9.13;;
23561;SDS011;11959;49.418;8.728;2024-01-30T14:13:46;10.88;;;8.20;;
23561;SDS011;11959;49.418;8.728;2024-01-30T14:16:12;12.48;;;8.10;;
23561;SDS011;11959;49.418;8.728;2024-01-30T14:18:38;13.57;;;8.60;;
23561;SDS011;11959;49.418;8.728;2024-01-30T14:21:03;12.50;;;8.88;;
23561;SDS011;11959;49.418;8.728;2024-01-30T14:23:29;11.30;;;8.65;;
23561;SDS011;11959;49.418;8.728;2024-01-30T14:25:55;11.93;;;8.50;;
23561;SDS011;11959;49.418;8.728;2024-01-30T14:28:20;13.80;;;9.45;;
23561;SDS011;11959;49.418;8.728;2024-01-30T14:30:46;13.50;;;8.70;;
23561;SDS011;11959;49.418;8.728;2024-01-30T14:33:12;12.00;;;8.90;;